Washington Dulles International Airport
KIAD : now visible

Airfield :











YOU CAN JOIN US ON...

 
LOGIN :

Register | Disclaimer

   EN    FR    IT 

 









Legend :    VFR   Marginal VFR   IFR   Intensive IFR   Very Intensive IFR
Visi :
Ceiling :
>= 8 km
>= 3000ft
5 to 8 km
1000 to 3000 ft
1500m to 5 km
500 to 1000 ft
800 to 1500m
200 to 500 ft
< 800m
< 200 ft
Symbols :   Thunderstorms  Fog  Heavy snow  Heavy precipitations  Wind > 20 kt







- Airport Elevation : 312 ft
- IATA code : IAD


KIAD - Washington Dulles International

CURRENT METAR :
  • 191452Z 35009KT 10SM FEW180 SCT250 00/M12 A3064 RMK AO2 SLP378 T00001117 50018

EXPIRED METARs :
  • 191352Z 33008KT 10SM FEW180 SCT250 M01/M13 A3064 RMK AO2 SLP378 T10111128
  • 191252Z 34008KT 10SM FEW250 M02/M12 A3062 RMK AO2 SLP371 T10221122

TAF KIAD
Valid from the 19 at 15:00 until the 20 at 18:00 UTC


191434Z 1915/2018 34008KT P6SM SCT250
FM200000 03004KT P6SM OVC150
FM200900 03004KT 3SM -SN BR OVC035
FM201100 03004KT 1SM -SN BR OVC008
KZDC FIR / North America



MET'MAP, your aeronautical weather chart ! - Copyright ORBIFLY December 2007 - Disclaimer

ORBIFLY MET'MAP TEAM :

Programming & Development : Alexandra Zaïnal
Concept & Development : Baudouin d'Aumeries
Co-Development & Prog : Marc-Olivier Méhu
Technical & hardware support : Manuel Goepfert

Contact : metmap@orbifly.com




SOURCES & CREDITS :

   NOAA       Earth
Advisory